Time;durP1;ratioP1;P1;durP2;ratioP2;P2;SDS_P1;SDS_P2;PMS_P1;PMS_P2;Temp;Humidity;BMP_temperature;BMP_pressure;BME280_temperature;BME280_humidity;BME280_pressure;Samples;Min_cycle;Max_cycle;Signal;HPM_P1;HPM_P2
2023/07/25 00:00:08;;;;;;;9.77;4.30;;;20.10;1.00;;;;;;5009511;28;20178;-74
2023/07/25 00:02:34;;;;;;;8.10;3.70;;;20.20;1.00;;;;;;5008689;28;20452;-75
2023/07/25 00:04:59;;;;;;;11.27;4.20;;;20.10;1.00;;;;;;5009407;28;20187;-72
2023/07/25 00:07:25;;;;;;;6.57;3.83;;;20.10;1.00;;;;;;5008901;28;20218;-74
2023/07/25 00:09:51;;;;;;;6.83;3.67;;;20.00;1.00;;;;;;5009354;28;20198;-75
2023/07/25 00:12:17;;;;;;;6.40;3.90;;;20.00;1.00;;;;;;5007388;28;20182;-76
2023/07/25 00:14:43;;;;;;;8.97;4.37;;;20.00;1.00;;;;;;5006366;28;20445;-74
2023/07/25 00:17:08;;;;;;;6.93;4.40;;;20.00;1.00;;;;;;5007677;28;20304;-74
2023/07/25 00:19:34;;;;;;;6.80;4.27;;;19.90;1.00;;;;;;5007441;28;20595;-74
2023/07/25 00:21:59;;;;;;;9.53;5.17;;;19.90;1.00;;;;;;5008857;28;20252;-74
2023/07/25 00:24:25;;;;;;;8.97;4.03;;;19.90;1.00;;;;;;5007525;28;20193;-73
2023/07/25 00:26:50;;;;;;;15.07;4.30;;;19.90;1.00;;;;;;5008904;28;20308;-75
2023/07/25 00:29:16;;;;;;;7.60;3.93;;;19.90;1.00;;;;;;5009482;28;20195;-74
2023/07/25 00:31:41;;;;;;;5.33;3.93;;;19.90;1.00;;;;;;5006199;28;20564;-74
2023/07/25 00:34:07;;;;;;;6.90;3.90;;;19.90;1.00;;;;;;5009648;28;20186;-73
2023/07/25 00:36:32;;;;;;;8.33;4.00;;;19.80;1.00;;;;;;5007445;28;20653;-72
2023/07/25 00:38:58;;;;;;;8.50;4.17;;;19.80;1.00;;;;;;5008620;28;20313;-74
2023/07/25 00:41:24;;;;;;;7.20;4.40;;;19.70;1.00;;;;;;5002282;28;20188;-72
2023/07/25 00:43:50;;;;;;;8.53;4.07;;;19.60;1.00;;;;;;5008399;28;20194;-75
2023/07/25 00:46:18;;;;;;;7.87;4.40;;;19.50;1.00;;;;;;5008472;28;20205;-74
2023/07/25 00:48:44;;;;;;;8.03;4.30;;;19.30;1.00;;;;;;5007046;28;20210;-74
2023/07/25 00:51:10;;;;;;;6.50;4.00;;;19.20;1.00;;;;;;5006197;28;21030;-74
2023/07/25 00:53:36;;;;;;;10.63;4.30;;;19.10;1.00;;;;;;5008189;28;20449;-74
2023/07/25 00:56:02;;;;;;;9.27;4.03;;;19.10;1.00;;;;;;5008486;28;20182;-74
2023/07/25 00:58:29;;;;;;;6.20;3.90;;;19.10;1.00;;;;;;5008182;28;20218;-72
2023/07/25 01:01:02;;;;;;;7.03;3.90;;;19.00;1.00;;;;;;5007872;28;20181;-74
2023/07/25 01:03:28;;;;;;;5.63;3.67;;;19.00;1.00;;;;;;5010901;28;20433;-73
2023/07/25 01:05:54;;;;;;;5.60;3.50;;;18.90;1.00;;;;;;5008391;28;20792;-74
2023/07/25 01:08:20;;;;;;;8.10;3.80;;;18.80;1.00;;;;;;5009133;28;20293;-75
2023/07/25 01:10:45;;;;;;;7.60;3.97;;;18.80;1.00;;;;;;5009333;28;20739;-75
2023/07/25 01:13:11;;;;;;;5.40;3.57;;;18.80;1.00;;;;;;5008305;28;20221;-74
2023/07/25 01:15:37;;;;;;;4.90;3.13;;;18.80;1.00;;;;;;5007461;28;20190;-76
2023/07/25 01:18:03;;;;;;;7.63;3.33;;;18.80;1.00;;;;;;5008951;28;20230;-74
2023/07/25 01:20:29;;;;;;;5.37;3.30;;;18.90;1.00;;;;;;5007722;28;20436;-74
2023/07/25 01:22:56;;;;;;;4.30;3.10;;;18.80;1.00;;;;;;5009093;28;20986;-74
2023/07/25 01:25:21;;;;;;;4.80;3.30;;;18.80;1.00;;;;;;5007858;28;20526;-75
2023/07/25 01:27:47;;;;;;;6.87;3.50;;;18.90;1.00;;;;;;5008266;28;20460;-74
2023/07/25 01:30:12;;;;;;;8.73;3.27;;;18.90;1.00;;;;;;5008546;28;20183;-73
2023/07/25 01:32:38;;;;;;;4.50;3.43;;;19.00;1.00;;;;;;5008006;28;20268;-74
2023/07/25 01:35:04;;;;;;;6.20;3.70;;;19.00;1.00;;;;;;5007887;28;20313;-73
2023/07/25 01:37:29;;;;;;;5.03;3.20;;;19.00;1.00;;;;;;5008807;28;20206;-73
2023/07/25 01:39:55;;;;;;;4.67;3.40;;;19.00;1.00;;;;;;5009358;28;20249;-74
2023/07/25 01:42:20;;;;;;;11.40;3.47;;;18.90;1.00;;;;;;5003782;28;20645;-74
2023/07/25 01:44:46;;;;;;;6.13;3.90;;;18.90;1.00;;;;;;5005988;28;20178;-73
2023/07/25 01:47:11;;;;;;;5.50;3.77;;;18.90;1.00;;;;;;5006026;28;20213;-75
2023/07/25 01:49:37;;;;;;;7.43;3.27;;;18.80;1.00;;;;;;5010935;28;20190;-75
2023/07/25 01:52:03;;;;;;;4.90;3.53;;;18.70;1.00;;;;;;5013067;28;20254;-76
2023/07/25 01:54:28;;;;;;;5.23;3.50;;;18.60;1.00;;;;;;5012654;28;20178;-75
2023/07/25 01:56:53;;;;;;;7.30;4.20;;;18.50;1.00;;;;;;5012105;28;20258;-74
2023/07/25 01:59:19;;;;;;;6.97;3.90;;;18.50;1.00;;;;;;5012915;28;20290;-75
2023/07/25 02:01:45;;;;;;;6.83;3.80;;;18.40;1.00;;;;;;5012667;28;20467;-75
2023/07/25 02:04:11;;;;;;;5.50;4.03;;;18.40;1.00;;;;;;5012726;28;20189;-75
2023/07/25 02:06:36;;;;;;;5.23;3.93;;;18.40;1.00;;;;;;5017661;28;20672;-75
2023/07/25 02:09:02;;;;;;;5.23;3.80;;;18.40;1.00;;;;;;5013010;28;20225;-75
2023/07/25 02:11:28;;;;;;;9.80;3.90;;;18.40;1.00;;;;;;5013251;28;20191;-75
2023/07/25 02:13:53;;;;;;;8.53;4.47;;;18.40;1.00;;;;;;5011576;28;20438;-76
2023/07/25 02:16:19;;;;;;;5.13;3.97;;;18.40;1.00;;;;;;5012672;28;20190;-75
2023/07/25 02:18:45;;;;;;;5.90;3.73;;;18.40;1.00;;;;;;5012459;28;20209;-74
2023/07/25 02:21:10;;;;;;;8.47;3.80;;;18.30;1.00;;;;;;5012935;28;20425;-74
2023/07/25 02:23:36;;;;;;;6.90;4.00;;;18.30;1.00;;;;;;5012218;28;20198;-74
2023/07/25 02:26:01;;;;;;;6.90;4.03;;;18.20;1.00;;;;;;5011995;28;20204;-75
2023/07/25 02:28:27;;;;;;;6.70;3.93;;;18.20;1.00;;;;;;5012377;28;20557;-74
2023/07/25 02:30:52;;;;;;;8.20;4.23;;;18.10;1.00;;;;;;5012296;28;20183;-76
2023/07/25 02:33:18;;;;;;;5.53;3.37;;;18.20;1.00;;;;;;5009887;28;20187;-75
2023/07/25 02:35:43;;;;;;;5.43;3.30;;;18.10;1.00;;;;;;5009826;28;20209;-74
2023/07/25 02:38:09;;;;;;;7.23;3.30;;;18.00;1.00;;;;;;5012613;28;20213;-74
2023/07/25 02:40:35;;;;;;;5.20;3.50;;;17.90;1.00;;;;;;5012080;28;20206;-74
2023/07/25 02:43:03;;;;;;;5.10;3.70;;;17.80;1.00;;;;;;5013058;28;20186;-74
2023/07/25 02:45:28;;;;;;;5.67;4.00;;;17.80;1.00;;;;;;5015474;28;20544;-75
2023/07/25 02:47:54;;;;;;;5.80;3.70;;;17.70;1.00;;;;;;5011842;28;20452;-75
2023/07/25 02:50:19;;;;;;;4.70;3.37;;;17.70;1.00;;;;;;5010618;28;20190;-75
2023/07/25 02:52:45;;;;;;;5.30;3.07;;;17.80;1.00;;;;;;5011407;28;20187;-75
2023/07/25 02:55:10;;;;;;;4.77;3.40;;;17.80;1.00;;;;;;5012633;28;20179;-75
2023/07/25 02:57:36;;;;;;;4.20;3.20;;;17.90;1.00;;;;;;5011464;28;20211;-78
2023/07/25 03:00:02;;;;;;;3.70;3.20;;;17.90;1.00;;;;;;5010985;28;20182;-74
2023/07/25 03:02:27;;;;;;;7.57;3.70;;;17.80;1.00;;;;;;5011049;28;20565;-75
2023/07/25 03:04:54;;;;;;;5.40;3.50;;;17.70;1.00;;;;;;5011929;28;20236;-75
2023/07/25 03:07:19;;;;;;;6.00;3.50;;;17.70;1.00;;;;;;5011694;28;20205;-74
2023/07/25 03:09:46;;;;;;;6.13;3.67;;;17.70;1.00;;;;;;5011317;28;20437;-76
2023/07/25 03:12:11;;;;;;;3.93;3.30;;;17.70;1.00;;;;;;5011226;28;20448;-75
2023/07/25 03:14:37;;;;;;;5.60;3.43;;;17.60;1.00;;;;;;5011617;28;20190;-75
2023/07/25 03:17:03;;;;;;;4.63;3.40;;;17.60;1.00;;;;;;5010360;28;20272;-75
2023/07/25 03:19:28;;;;;;;7.70;3.77;;;17.60;1.00;;;;;;5007810;28;20244;-77
2023/07/25 03:21:54;;;;;;;7.00;3.87;;;17.50;1.00;;;;;;5011027;28;20194;-75
2023/07/25 03:24:19;;;;;;;8.17;4.37;;;17.60;1.00;;;;;;5011525;28;20194;-74
2023/07/25 03:26:45;;;;;;;5.70;4.10;;;17.60;1.00;;;;;;5010591;28;20182;-74
2023/07/25 03:29:10;;;;;;;4.67;3.70;;;17.60;1.00;;;;;;5010509;28;20193;-73
2023/07/25 03:31:36;;;;;;;5.53;3.53;;;17.50;1.00;;;;;;5016035;28;20209;-73
2023/07/25 03:34:02;;;;;;;5.03;3.97;;;17.50;1.00;;;;;;5011004;28;20850;-72
2023/07/25 03:36:27;;;;;;;6.07;4.03;;;17.50;1.00;;;;;;5011175;28;20275;-75
2023/07/25 03:38:53;;;;;;;5.27;3.90;;;17.50;1.00;;;;;;5010640;28;20257;-75
2023/07/25 03:41:18;;;;;;;7.27;4.20;;;17.60;1.00;;;;;;5011271;28;20178;-74
2023/07/25 03:43:44;;;;;;;5.53;3.93;;;17.60;1.00;;;;;;5010120;28;20194;-74
2023/07/25 03:46:09;;;;;;;6.20;4.03;;;17.60;1.00;;;;;;5011229;28;20580;-74
2023/07/25 03:48:35;;;;;;;5.40;4.10;;;17.80;1.00;;;;;;5011340;28;20293;-75
2023/07/25 03:51:00;;;;;;;7.37;5.10;;;17.90;1.00;;;;;;5010734;28;20682;-75
2023/07/25 03:53:26;;;;;;;6.73;4.30;;;17.90;1.00;;;;;;5010938;28;20187;-75
2023/07/25 03:55:51;;;;;;;5.47;4.30;;;18.00;1.00;;;;;;5010550;28;20217;-75
2023/07/25 03:58:17;;;;;;;6.83;4.10;;;18.10;1.00;;;;;;5009967;28;20264;-74
2023/07/25 04:00:42;;;;;;;5.80;4.30;;;18.20;1.00;;;;;;5010085;28;20190;-74
2023/07/25 04:03:08;;;;;;;12.37;4.70;;;18.20;1.00;;;;;;5010903;28;20190;-75
2023/07/25 04:05:33;;;;;;;6.37;4.97;;;18.20;1.00;;;;;;5010512;28;20600;-75
2023/07/25 04:07:59;;;;;;;6.77;4.60;;;18.20;1.00;;;;;;5010308;28;20256;-75
2023/07/25 04:10:26;;;;;;;5.70;4.17;;;18.20;1.00;;;;;;5010172;28;20281;-77
2023/07/25 04:12:51;;;;;;;10.33;4.90;;;18.10;1.00;;;;;;5010865;28;20428;-75
2023/07/25 04:15:17;;;;;;;6.77;4.73;;;18.10;1.00;;;;;;5010326;28;20430;-76
2023/07/25 04:17:42;;;;;;;8.63;4.77;;;18.10;1.00;;;;;;5010443;28;20704;-74
2023/07/25 04:20:08;;;;;;;13.67;4.67;;;18.20;1.00;;;;;;5010327;28;20182;-75
2023/07/25 04:22:34;;;;;;;8.00;4.73;;;18.20;1.00;;;;;;5010473;28;20222;-74
2023/07/25 04:24:59;;;;;;;7.43;5.20;;;18.20;1.00;;;;;;5010229;28;20193;-75
2023/07/25 04:27:24;;;;;;;9.53;4.60;;;18.20;1.00;;;;;;5009934;28;20293;-75
2023/07/25 04:29:50;;;;;;;5.80;4.43;;;18.20;1.00;;;;;;5010448;28;20190;-74
2023/07/25 04:32:15;;;;;;;5.80;4.60;;;18.10;1.00;;;;;;5007411;28;20690;-75
2023/07/25 04:34:41;;;;;;;8.07;4.57;;;18.10;1.00;;;;;;5010781;28;20260;-75
2023/07/25 04:37:07;;;;;;;8.40;5.20;;;18.10;1.00;;;;;;5010371;28;20210;-75
2023/07/25 04:39:32;;;;;;;8.70;5.50;;;18.10;1.00;;;;;;5010684;28;20178;-75
2023/07/25 04:41:57;;;;;;;7.23;5.40;;;18.20;1.00;;;;;;5010082;28;20724;-76
2023/07/25 04:44:23;;;;;;;7.40;5.10;;;18.10;1.00;;;;;;5008318;28;20185;-75
2023/07/25 04:46:48;;;;;;;8.83;5.40;;;18.10;1.00;;;;;;5009278;28;20557;-75
2023/07/25 04:49:14;;;;;;;7.93;5.23;;;18.10;1.00;;;;;;5010518;28;20186;-76
2023/07/25 04:51:40;;;;;;;8.40;5.43;;;18.10;1.00;;;;;;5009977;28;20186;-75
2023/07/25 04:54:06;;;;;;;6.70;5.63;;;18.10;1.00;;;;;;5011698;28;20273;-75
2023/07/25 04:56:31;;;;;;;6.63;5.33;;;18.20;1.00;;;;;;5010230;28;20244;-76
2023/07/25 04:58:57;;;;;;;9.40;5.70;;;18.10;1.00;;;;;;5008697;28;20473;-75
2023/07/25 05:01:22;;;;;;;8.70;5.30;;;18.10;1.00;;;;;;5010390;28;20201;-75
2023/07/25 05:03:48;;;;;;;10.63;5.80;;;18.00;1.00;;;;;;5008061;28;20189;-74
2023/07/25 05:06:13;;;;;;;8.20;5.80;;;18.10;1.00;;;;;;5010554;28;20177;-75
2023/07/25 05:08:39;;;;;;;9.20;5.73;;;18.20;1.00;;;;;;5009715;28;20607;-76
2023/07/25 05:11:05;;;;;;;6.93;5.80;;;18.20;1.00;;;;;;5010009;28;20252;-76
2023/07/25 05:13:30;;;;;;;8.00;5.87;;;18.20;1.00;;;;;;5010535;28;20194;-76
2023/07/25 05:15:56;;;;;;;8.33;5.93;;;18.20;1.00;;;;;;5009659;28;20252;-76
2023/07/25 05:18:21;;;;;;;9.73;5.73;;;18.20;1.00;;;;;;5010034;28;20288;-75
2023/07/25 05:20:47;;;;;;;7.53;5.70;;;18.20;1.00;;;;;;5010074;28;20229;-73
2023/07/25 05:23:12;;;;;;;7.17;5.33;;;18.20;1.00;;;;;;5009084;28;20178;-75
2023/07/25 05:25:38;;;;;;;13.23;4.77;;;18.20;1.00;;;;;;5010177;28;20241;-75
2023/07/25 05:28:04;;;;;;;8.27;5.20;;;18.10;1.00;;;;;;5010188;28;20206;-75
2023/07/25 05:30:30;;;;;;;8.60;4.80;;;18.00;1.00;;;;;;5010350;28;20198;-75
2023/07/25 05:32:55;;;;;;;12.87;5.47;;;18.00;1.00;;;;;;5006456;28;20273;-74
2023/07/25 05:35:21;;;;;;;7.23;5.30;;;17.90;1.00;;;;;;5009830;28;20528;-74
2023/07/25 05:37:46;;;;;;;10.47;5.00;;;17.80;1.00;;;;;;5010196;28;20631;-75
2023/07/25 05:40:12;;;;;;;7.43;5.27;;;17.70;1.00;;;;;;5008250;28;20197;-76
2023/07/25 05:42:37;;;;;;;7.97;4.60;;;17.70;1.00;;;;;;5010443;28;20198;-75
2023/07/25 05:45:04;;;;;;;5.80;4.90;;;17.60;1.00;;;;;;5009194;28;20190;-74
2023/07/25 05:47:29;;;;;;;7.83;5.20;;;17.60;1.00;;;;;;5003315;28;20229;-74
2023/07/25 05:49:55;;;;;;;10.90;5.27;;;17.60;1.00;;;;;;5009632;28;20511;-74
2023/07/25 05:52:21;;;;;;;7.90;4.77;;;17.50;1.00;;;;;;5010178;28;20551;-75
2023/07/25 05:54:46;;;;;;;6.40;4.80;;;17.50;1.00;;;;;;5010007;28;20194;-76
2023/07/25 05:57:12;;;;;;;6.23;4.50;;;17.60;1.00;;;;;;5009345;28;20506;-75
2023/07/25 05:59:38;;;;;;;8.10;4.73;;;17.60;1.00;;;;;;5010455;28;20730;-74
2023/07/25 06:02:04;;;;;;;6.90;4.63;;;17.70;1.00;;;;;;5009877;28;20548;-74
2023/07/25 06:04:30;;;;;;;8.03;5.00;;;17.70;1.00;;;;;;5009912;28;20285;-74
2023/07/25 06:06:55;;;;;;;7.30;4.43;;;17.70;1.00;;;;;;5009272;28;20998;-72
2023/07/25 06:09:21;;;;;;;5.73;4.80;;;17.70;1.00;;;;;;5009497;28;20645;-74
2023/07/25 06:11:46;;;;;;;8.03;4.70;;;17.90;1.00;;;;;;5009442;28;20194;-74
2023/07/25 06:14:12;;;;;;;7.10;4.60;;;17.80;1.00;;;;;;5009132;28;20194;-74
2023/07/25 06:16:37;;;;;;;8.40;4.40;;;17.80;1.00;;;;;;5007612;28;20190;-74
2023/07/25 06:19:03;;;;;;;8.67;5.13;;;17.80;1.00;;;;;;5006428;28;20222;-75
2023/07/25 06:21:29;;;;;;;7.40;5.03;;;17.80;1.00;;;;;;5009298;28;20195;-74
2023/07/25 06:23:54;;;;;;;8.30;5.10;;;17.90;1.00;;;;;;5009040;28;20274;-74
2023/07/25 06:26:20;;;;;;;7.23;4.67;;;17.90;1.00;;;;;;5008577;28;20190;-74
2023/07/25 06:28:45;;;;;;;6.73;4.50;;;17.90;1.00;;;;;;5009186;28;20210;-75
2023/07/25 06:31:11;;;;;;;8.33;5.03;;;18.00;1.00;;;;;;5009059;28;20194;-74
2023/07/25 06:33:36;;;;;;;8.90;4.50;;;18.10;1.00;;;;;;5005565;28;20190;-71
2023/07/25 06:36:02;;;;;;;7.60;4.53;;;18.20;1.00;;;;;;5011943;28;20265;-74
2023/07/25 06:38:27;;;;;;;7.83;4.60;;;18.00;1.00;;;;;;5013260;28;20236;-76
2023/07/25 06:40:53;;;;;;;8.37;5.20;;;17.90;1.00;;;;;;5012146;28;20189;-74
2023/07/25 06:43:18;;;;;;;10.80;5.00;;;17.80;1.00;;;;;;5011745;28;20194;-74
2023/07/25 06:45:44;;;;;;;12.57;5.63;;;17.70;1.00;;;;;;5011530;28;20258;-74
2023/07/25 06:48:10;;;;;;;6.90;4.97;;;17.70;1.00;;;;;;5011757;28;20688;-73
2023/07/25 06:50:35;;;;;;;7.87;4.57;;;17.60;1.00;;;;;;5012521;28;20271;-74
2023/07/25 06:53:01;;;;;;;9.00;4.60;;;17.60;1.00;;;;;;5011268;28;20653;-74
2023/07/25 06:55:26;;;;;;;8.10;5.00;;;17.50;1.00;;;;;;5011447;28;20190;-75
2023/07/25 06:57:52;;;;;;;7.10;5.10;;;17.70;1.00;;;;;;5011850;28;20297;-73
2023/07/25 07:00:18;;;;;;;8.10;5.00;;;17.90;1.00;;;;;;5011458;28;20253;-73
2023/07/25 07:02:44;;;;;;;6.60;5.10;;;18.00;1.00;;;;;;5012134;28;20174;-74
2023/07/25 07:05:10;;;;;;;6.00;4.77;;;18.00;1.00;;;;;;5012230;28;20500;-75
2023/07/25 07:07:38;;;;;;;6.80;4.90;;;18.00;1.00;;;;;;5011285;28;20484;-74
2023/07/25 07:10:04;;;;;;;6.87;5.10;;;18.00;1.00;;;;;;5010894;28;20742;-74
2023/07/25 07:12:29;;;;;;;6.37;4.60;;;17.90;1.00;;;;;;5012313;28;20460;-74
2023/07/25 07:14:55;;;;;;;8.03;4.20;;;17.80;1.00;;;;;;5011965;28;20256;-75
2023/07/25 07:17:20;;;;;;;7.20;4.77;;;17.80;1.00;;;;;;5010333;28;20202;-74
2023/07/25 07:19:46;;;;;;;7.23;4.87;;;17.90;1.00;;;;;;5011828;28;20250;-73
2023/07/25 07:22:12;;;;;;;8.23;5.13;;;18.00;1.00;;;;;;5011433;28;20210;-74
2023/07/25 07:24:37;;;;;;;6.80;4.97;;;18.10;1.00;;;;;;5011230;28;20708;-74
2023/07/25 07:27:03;;;;;;;7.00;4.80;;;18.40;1.00;;;;;;5009857;28;20237;-73
2023/07/25 07:29:28;;;;;;;6.83;4.47;;;18.50;1.00;;;;;;5011811;28;20568;-74
2023/07/25 07:31:54;;;;;;;6.90;4.20;;;18.80;1.00;;;;;;5012508;28;20190;-76
2023/07/25 07:34:19;;;;;;;6.57;4.73;;;18.90;1.00;;;;;;5011305;28;20190;-74
2023/07/25 07:36:45;;;;;;;7.73;4.90;;;19.10;1.00;;;;;;5011591;28;20695;-75
2023/07/25 07:39:11;;;;;;;10.83;4.87;;;19.00;1.00;;;;;;5010933;28;20604;-74
2023/07/25 07:41:36;;;;;;;6.27;3.53;;;19.10;1.00;;;;;;5011733;28;20557;-75
2023/07/25 07:44:02;;;;;;;6.53;4.20;;;19.30;1.00;;;;;;5011271;28;20425;-75
2023/07/25 07:46:29;;;;;;;5.37;3.90;;;19.50;1.00;;;;;;5007520;28;20280;-75
2023/07/25 07:48:57;;;;;;;5.80;4.07;;;19.70;1.00;;;;;;5011407;28;20285;-77
2023/07/25 07:51:23;;;;;;;9.27;4.80;;;19.70;1.00;;;;;;5010956;28;20919;-76
2023/07/25 07:53:49;;;;;;;6.00;4.47;;;19.50;1.00;;;;;;5010744;28;20449;-75
2023/07/25 07:56:14;;;;;;;6.23;4.60;;;19.30;1.00;;;;;;5010241;28;20502;-76
2023/07/25 07:58:40;;;;;;;7.00;4.60;;;19.10;1.00;;;;;;5010946;28;20600;-75
2023/07/25 08:01:16;;;;;;;5.97;3.70;;;19.10;1.00;;;;;;5009766;28;20197;-76
2023/07/25 08:03:43;;;;;;;5.30;4.30;;;19.20;1.00;;;;;;4993324;28;20257;-72
2023/07/25 08:06:09;;;;;;;6.90;5.20;;;19.20;1.00;;;;;;5008889;28;20409;-72
2023/07/25 08:08:34;;;;;;;6.20;4.40;;;19.60;1.00;;;;;;5007160;28;20465;-74
2023/07/25 08:10:59;;;;;;;5.83;4.47;;;19.90;1.00;;;;;;5007586;28;20194;-76
2023/07/25 08:13:25;;;;;;;6.73;4.37;;;20.00;1.00;;;;;;5010517;28;20198;-72
2023/07/25 08:15:50;;;;;;;5.97;4.10;;;19.90;1.00;;;;;;5010996;28;20257;-73
2023/07/25 08:18:16;;;;;;;8.93;4.50;;;19.80;1.00;;;;;;5011720;28;20210;-73
2023/07/25 08:20:44;;;;;;;5.70;4.03;;;19.90;1.00;;;;;;5009607;28;20182;-71
2023/07/25 08:23:09;;;;;;;7.60;4.23;;;19.70;1.00;;;;;;5006258;28;21024;-72
2023/07/25 08:25:37;;;;;;;4.53;3.80;;;19.70;1.00;;;;;;5008435;28;20524;-73
2023/07/25 08:28:03;;;;;;;7.57;4.13;;;19.70;1.00;;;;;;5009288;28;20206;-72
2023/07/25 08:30:29;;;;;;;12.10;3.60;;;19.80;1.00;;;;;;5009429;28;20499;-73
2023/07/25 08:32:54;;;;;;;4.60;3.57;;;19.80;1.00;;;;;;5007484;28;20593;-72
2023/07/25 08:35:20;;;;;;;5.33;3.03;;;20.20;1.00;;;;;;5007094;28;20274;-73
2023/07/25 08:37:45;;;;;;;4.70;3.33;;;20.90;1.00;;;;;;5008407;28;20285;-72
2023/07/25 08:40:11;;;;;;;4.47;2.73;;;21.30;1.00;;;;;;5007679;28;20202;-75
2023/07/25 08:42:41;;;;;;;3.90;2.80;;;21.80;1.00;;;;;;5008251;28;20940;-73
2023/07/25 08:45:08;;;;;;;4.70;2.90;;;22.30;1.00;;;;;;5001417;28;20225;-73
2023/07/25 08:47:39;;;;;;;6.03;3.20;;;22.20;1.00;;;;;;5003012;28;21072;-72
2023/07/25 08:50:11;;;;;;;5.43;3.40;;;22.20;1.00;;;;;;5005471;28;20531;-74
2023/07/25 08:52:39;;;;;;;5.70;3.50;;;22.30;1.00;;;;;;5008960;28;20451;-72
2023/07/25 08:55:04;;;;;;;7.30;2.90;;;22.30;1.00;;;;;;5003960;28;20445;-73
2023/07/25 08:57:31;;;;;;;5.13;3.37;;;22.80;1.00;;;;;;5006640;28;20515;-75
2023/07/25 08:59:57;;;;;;;5.07;3.00;;;23.90;1.00;;;;;;5010498;28;20193;-73
2023/07/25 09:02:23;;;;;;;5.20;2.83;;;24.70;1.00;;;;;;5005558;28;20441;-73
2023/07/25 09:04:50;;;;;;;4.13;2.63;;;23.80;1.00;;;;;;5008740;28;20439;-74
2023/07/25 09:07:15;;;;;;;4.90;3.00;;;23.80;1.00;;;;;;5007255;28;20543;-74
2023/07/25 09:09:41;;;;;;;3.97;2.50;;;24.10;1.00;;;;;;5006841;28;20531;-72
2023/07/25 09:12:07;;;;;;;4.40;2.70;;;23.80;1.00;;;;;;5008120;28;20178;-76
2023/07/25 09:14:36;;;;;;;4.30;2.53;;;24.60;1.00;;;;;;5007859;28;20241;-74
2023/07/25 09:17:06;;;;;;;4.07;2.50;;;25.40;1.00;;;;;;5005473;28;20483;-75
2023/07/25 09:19:32;;;;;;;4.30;2.70;;;25.70;1.00;;;;;;5007555;28;20838;-74
2023/07/25 09:21:57;;;;;;;3.80;2.30;;;26.40;1.00;;;;;;5007457;28;20429;-74
2023/07/25 09:24:23;;;;;;;4.60;2.47;;;26.40;1.00;;;;;;5007368;28;20189;-76
2023/07/25 09:26:50;;;;;;;5.17;2.60;;;26.00;1.00;;;;;;5007746;28;20174;-72
2023/07/25 09:29:17;;;;;;;4.77;2.63;;;25.60;1.00;;;;;;5006573;28;20529;-74
2023/07/25 09:31:45;;;;;;;5.50;2.40;;;26.00;1.00;;;;;;5005335;28;20436;-73
2023/07/25 09:34:16;;;;;;;6.20;2.60;;;25.70;1.00;;;;;;5005554;28;20448;-73
2023/07/25 09:36:47;;;;;;;4.80;2.43;;;24.40;1.00;;;;;;5013577;28;20443;-73
2023/07/25 09:39:13;;;;;;;10.70;4.07;;;23.70;1.00;;;;;;5009777;28;20552;-72
2023/07/25 09:41:39;;;;;;;14.60;4.30;;;22.90;1.00;;;;;;5005408;28;20428;-73
2023/07/25 09:44:07;;;;;;;9.13;3.77;;;21.50;1.00;;;;;;5009342;28;20524;-74
2023/07/25 09:46:33;;;;;;;4.87;3.47;;;20.40;1.00;;;;;;5007146;28;20190;-74
2023/07/25 09:48:59;;;;;;;7.73;3.70;;;19.60;1.00;;;;;;5013488;28;20454;-74
2023/07/25 09:51:24;;;;;;;5.50;2.40;;;19.20;1.00;;;;;;5006729;28;20190;-76
2023/07/25 09:53:54;;;;;;;6.70;2.73;;;18.90;1.00;;;;;;5009713;28;20187;-74
2023/07/25 09:56:25;;;;;;;4.80;2.53;;;18.60;1.00;;;;;;5004860;28;20178;-74
2023/07/25 09:58:52;;;;;;;5.73;2.10;;;18.40;1.00;;;;;;5002097;28;20563;-74
2023/07/25 10:01:18;;;;;;;3.50;2.10;;;18.20;1.00;;;;;;5021012;28;20462;-72
2023/07/25 10:03:44;;;;;;;4.77;2.37;;;18.10;1.00;;;;;;5008311;28;20796;-76
2023/07/25 10:06:11;;;;;;;4.50;2.83;;;18.20;1.00;;;;;;5007455;28;20935;-74
2023/07/25 10:08:43;;;;;;;5.13;2.43;;;18.40;1.00;;;;;;5009652;28;20469;-75
2023/07/25 10:11:11;;;;;;;7.17;2.77;;;18.40;1.00;;;;;;5012630;28;20432;-78
2023/07/25 10:13:37;;;;;;;6.00;3.43;;;18.50;1.00;;;;;;5012462;28;20436;-74
2023/07/25 10:16:03;;;;;;;6.73;3.17;;;18.60;1.00;;;;;;5013277;28;20784;-75
2023/07/25 10:18:33;;;;;;;5.50;2.90;;;18.70;1.00;;;;;;5012577;28;20293;-75
2023/07/25 10:20:59;;;;;;;5.17;2.50;;;17.80;1.00;;;;;;5017897;28;20429;-75
2023/07/25 10:23:36;;;;;;;7.43;3.60;;;18.90;1.00;;;;;;5012437;28;20428;-75
2023/07/25 10:26:14;;;;;;;7.03;3.60;;;19.10;1.00;;;;;;5008694;28;20190;-75
2023/07/25 10:28:40;;;;;;;6.50;4.30;;;19.70;1.00;;;;;;5005211;28;20464;-74
2023/07/25 10:31:22;;;;;;;6.33;4.60;;;19.60;1.00;;;;;;5006125;28;20525;-74
2023/07/25 10:33:53;;;;;;;7.37;5.10;;;19.50;1.00;;;;;;5006050;28;20432;-73
2023/07/25 10:36:23;;;;;;;12.03;9.63;;;19.40;1.00;;;;;;5008781;28;20807;-77
2023/07/25 10:38:49;;;;;;;19.37;12.03;;;19.80;1.00;;;;;;5007488;28;20495;-75
2023/07/25 10:41:16;;;;;;;26.73;12.20;;;20.70;1.00;;;;;;5013189;28;20425;-76
2023/07/25 10:43:48;;;;;;;12.33;8.67;;;21.50;1.00;;;;;;5011062;28;20421;-74
2023/07/25 10:46:21;;;;;;;11.60;7.60;;;22.40;1.00;;;;;;5011651;28;20425;-76
2023/07/25 10:48:47;;;;;;;8.57;6.10;;;23.60;1.00;;;;;;5000180;28;20539;-75
2023/07/25 10:51:15;;;;;;;6.93;4.90;;;24.50;1.00;;;;;;5009993;28;20425;-75
2023/07/25 10:54:01;;;;;;;5.60;4.23;;;24.70;1.00;;;;;;5010552;28;20488;-77
2023/07/25 10:56:27;;;;;;;6.47;4.27;;;24.30;1.00;;;;;;5011228;28;20448;-74
2023/07/25 10:59:01;;;;;;;4.60;3.63;;;24.00;1.00;;;;;;5010737;28;20561;-75
2023/07/25 11:01:47;;;;;;;4.90;3.17;;;24.30;1.00;;;;;;5007709;28;20193;-75
2023/07/25 11:04:26;;;;;;;5.87;3.03;;;24.60;1.00;;;;;;5008762;28;20942;-77
2023/07/25 11:06:55;;;;;;;5.00;3.30;;;25.50;1.00;;;;;;5004500;28;20444;-76
2023/07/25 11:09:21;;;;;;;4.70;3.00;;;25.50;1.00;;;;;;5010680;28;20449;-76
2023/07/25 11:11:49;;;;;;;5.43;3.20;;;25.90;1.00;;;;;;5007051;28;20986;-75
2023/07/25 11:14:17;;;;;;;3.80;2.83;;;25.90;1.00;;;;;;5004992;28;20196;-74
2023/07/25 11:16:44;;;;;;;4.60;3.00;;;25.60;1.00;;;;;;5006802;28;21801;-75
2023/07/25 11:19:10;;;;;;;5.00;3.10;;;24.80;1.00;;;;;;5008652;28;20518;-76
2023/07/25 11:21:43;;;;;;;6.63;3.10;;;24.00;1.00;;;;;;5008597;28;21062;-75
2023/07/25 11:24:09;;;;;;;5.40;3.20;;;23.70;1.00;;;;;;5006209;28;20480;-76
2023/07/25 11:26:38;;;;;;;4.37;2.93;;;23.30;1.00;;;;;;5008338;28;20445;-77
2023/07/25 11:29:06;;;;;;;4.63;2.90;;;22.90;1.00;;;;;;5004471;28;21044;-75
2023/07/25 11:31:31;;;;;;;7.03;2.43;;;22.60;1.00;;;;;;5008264;28;20488;-75
2023/07/25 11:33:57;;;;;;;3.60;2.50;;;22.40;1.00;;;;;;5007978;28;20959;-76
2023/07/25 11:36:23;;;;;;;3.90;2.30;;;22.40;1.00;;;;;;5008360;28;20212;-77
2023/07/25 11:38:48;;;;;;;4.20;2.93;;;22.20;1.00;;;;;;5008677;28;20284;-75
2023/07/25 11:41:14;;;;;;;8.83;3.00;;;22.20;1.00;;;;;;5010048;28;20182;-75
2023/07/25 11:43:39;;;;;;;3.60;2.70;;;21.90;1.00;;;;;;5008547;28;20205;-75
2023/07/25 11:46:05;;;;;;;3.90;2.70;;;21.50;1.00;;;;;;5007970;28;20178;-74
2023/07/25 11:48:31;;;;;;;4.13;2.83;;;21.20;1.00;;;;;;5008338;28;20702;-74
2023/07/25 11:50:57;;;;;;;5.07;2.90;;;20.90;1.00;;;;;;5008251;28;20182;-74
2023/07/25 11:53:26;;;;;;;5.70;2.90;;;20.70;1.00;;;;;;5007513;28;20192;-74
2023/07/25 11:55:52;;;;;;;4.00;2.80;;;20.70;1.00;;;;;;5008930;28;21050;-74
2023/07/25 11:58:19;;;;;;;4.80;2.77;;;20.90;1.00;;;;;;5010244;28;20465;-74
2023/07/25 12:00:51;;;;;;;4.00;2.90;;;21.00;1.00;;;;;;5007568;28;20467;-74
2023/07/25 12:03:18;;;;;;;4.13;2.97;;;21.00;1.00;;;;;;5005346;28;20578;-75
2023/07/25 12:05:54;;;;;;;5.00;2.70;;;21.00;1.00;;;;;;5010272;28;20916;-75
2023/07/25 12:08:40;;;;;;;3.73;2.60;;;21.00;1.00;;;;;;5008002;28;20551;-74
2023/07/25 12:11:13;;;;;;;4.30;3.03;;;21.30;1.00;;;;;;5008960;28;21808;-74
2023/07/25 12:13:54;;;;;;;5.30;3.03;;;21.60;1.00;;;;;;5008497;28;20437;-73
2023/07/25 12:16:27;;;;;;;3.70;2.53;;;21.70;1.00;;;;;;5008288;28;20935;-74
2023/07/25 12:18:55;;;;;;;4.03;2.90;;;21.50;1.00;;;;;;5006471;28;20563;-75
2023/07/25 12:21:32;;;;;;;6.83;2.97;;;21.50;1.00;;;;;;5007205;28;20441;-75
2023/07/25 12:24:00;;;;;;;3.50;2.50;;;21.80;1.00;;;;;;5009338;28;20433;-75
2023/07/25 12:26:26;;;;;;;4.60;2.70;;;22.20;1.00;;;;;;5007985;28;20448;-74
2023/07/25 12:28:53;;;;;;;4.20;2.77;;;22.60;1.00;;;;;;5008280;28;20484;-75
2023/07/25 12:31:20;;;;;;;3.23;2.27;;;22.80;1.00;;;;;;5008591;28;20433;-76
2023/07/25 12:33:47;;;;;;;3.63;2.43;;;23.00;1.00;;;;;;5004329;28;20448;-75
2023/07/25 12:36:14;;;;;;;4.00;2.70;;;23.20;1.00;;;;;;5009648;28;20432;-76
2023/07/25 12:38:40;;;;;;;3.43;2.40;;;23.60;1.00;;;;;;5007334;28;20471;-75
2023/07/25 12:41:05;;;;;;;4.03;2.57;;;23.80;1.00;;;;;;5006373;28;20440;-74
2023/07/25 12:43:31;;;;;;;4.47;2.80;;;24.00;1.00;;;;;;5008412;28;20465;-74
2023/07/25 12:45:57;;;;;;;3.40;2.67;;;24.60;1.00;;;;;;5004866;28;20315;-74
2023/07/25 12:48:22;;;;;;;4.13;2.70;;;25.10;1.00;;;;;;5008945;28;20610;-74
2023/07/25 12:50:50;;;;;;;3.70;2.70;;;25.20;1.00;;;;;;5006609;28;20189;-74